CheckWX is a tool to help pilots better visualize weather data.  It is not intended as a substitute for an official pre-flight weather briefing.

15:13:31 UTC

KBTL METAR
W K Kellogg Airport
Battle Creek, Michigan, USA
Current

21 mins ago

KBTL 261453Z 36003KT 10SM TS OVC017 21/17 A3003 RMK AO2 LTG DSNT E TSB51 SLP166 TS SW MOV E T02060167 53004
Observed
May-26 @ 14:53 UTC
Wind
  • 360° at 3 KTS
Visibility
10 SM
Flight Rules
MVFR
Conditions
Thunderstorm
Cloud Levels
  • Overcast at 1,700' AGL
Temperature
21°C / 70°F
Dewpoint
17°C / 63°F
Humidity
78%
Altimeter
30.03" Hg
Pressure
1016.92 hPa
Previous

42 mins ago

KBTL 261432Z 00000KT 10SM VCTS BKN018 BKN043 BKN080 21/17 A3003 RMK AO2 TS SW MOV E T02060167
Observed
May-26 @ 14:32 UTC
Visibility
10 SM
Flight Rules
MVFR
Conditions
Area Thunderstorm
Cloud Levels
  • Broken at 1,800' AGL
  • Broken at 4,300' AGL
  • Broken at 8,000' AGL
Temperature
21°C / 70°F
Dewpoint
17°C / 63°F
Humidity
78%
Altimeter
30.03" Hg
Pressure
1016.92 hPa
Previous

51 mins ago

KBTL 261423Z 00000KT 10SM VCTS SCT019 BKN043 BKN055 21/17 A3003 RMK AO2 LTG DSNT SW TS SW MOV E T02060167
Observed
May-26 @ 14:23 UTC
Visibility
10 SM
Flight Rules
VFR
Conditions
Area Thunderstorm
Cloud Levels
  • Scattered at 1,900' AGL
  • Broken at 4,300' AGL
  • Broken at 5,500' AGL
Temperature
21°C / 70°F
Dewpoint
17°C / 63°F
Humidity
78%
Altimeter
30.03" Hg
Pressure
1016.92 hPa